createdAt,value
2018-10-12T00:04:48.699Z,88.30
2018-10-12T00:09:52.339Z,89.10
2018-10-12T00:14:56.004Z,89.30
2018-10-12T00:19:59.635Z,90.00
2018-10-12T00:25:03.374Z,90.10
2018-10-12T00:30:07.065Z,90.40
2018-10-12T00:35:10.795Z,90.40
2018-10-12T00:40:14.429Z,90.70
2018-10-12T00:45:18.127Z,91.10
2018-10-12T00:50:21.755Z,91.20
2018-10-12T00:55:26.283Z,91.30
2018-10-12T01:00:29.914Z,91.60
2018-10-12T01:05:33.533Z,91.60
2018-10-12T01:10:37.182Z,92.10
2018-10-12T01:15:40.837Z,92.20
2018-10-12T01:20:44.446Z,92.70
2018-10-12T01:25:48.167Z,92.80
2018-10-12T01:30:51.887Z,93.00
2018-10-12T01:35:55.627Z,93.10
2018-10-12T01:40:59.260Z,93.50
2018-10-12T01:46:02.884Z,93.90
2018-10-12T01:51:06.786Z,94.20
2018-10-12T01:56:10.486Z,94.20
2018-10-12T02:01:14.105Z,94.30
2018-10-12T02:06:17.725Z,94.50
2018-10-12T02:11:21.339Z,94.60
2018-10-12T02:16:24.954Z,94.80
2018-10-12T02:21:28.574Z,95.00
2018-10-12T02:26:32.190Z,95.20
2018-10-12T02:31:35.831Z,95.30
2018-10-12T02:36:39.735Z,95.70
2018-10-12T02:41:43.350Z,95.90
2018-10-12T02:46:46.966Z,96.00
2018-10-12T02:51:50.586Z,96.20
2018-10-12T02:56:54.207Z,96.40
2018-10-12T03:01:57.819Z,96.30
2018-10-12T03:07:01.455Z,96.70
2018-10-12T03:12:05.069Z,96.80
2018-10-12T03:17:08.692Z,97.10
2018-10-12T03:22:12.906Z,97.30
2018-10-12T03:27:16.564Z,97.50
2018-10-12T03:32:20.151Z,97.70
2018-10-12T03:37:23.834Z,97.70
2018-10-12T03:42:27.383Z,97.70
2018-10-12T03:47:31.006Z,97.90
2018-10-12T03:52:34.711Z,98.00
2018-10-12T03:57:38.322Z,97.90
2018-10-12T04:02:41.962Z,98.20
2018-10-12T04:07:45.869Z,98.40
2018-10-12T04:12:49.487Z,98.60
2018-10-12T04:17:53.107Z,98.80
2018-10-12T04:22:56.744Z,99.10
2018-10-12T04:28:00.358Z,99.00
2018-10-12T04:33:03.978Z,99.30
2018-10-12T04:38:07.595Z,99.30
2018-10-12T04:43:11.214Z,99.50
2018-10-12T04:48:14.835Z,99.40
2018-10-12T04:53:18.450Z,99.50
2018-10-12T04:58:22.067Z,99.80
2018-10-12T05:03:25.692Z,99.90
2018-10-12T05:08:29.340Z,99.90
2018-10-12T05:13:34.020Z,99.90
2018-10-12T05:18:37.669Z,99.90
2018-10-12T05:23:41.289Z,99.90
2018-10-12T05:28:44.916Z,99.90
2018-10-12T05:33:48.587Z,99.90
2018-10-12T05:38:53.039Z,99.90
2018-10-12T05:43:56.708Z,99.90
2018-10-12T05:49:11.691Z,99.90
2018-10-12T05:54:15.371Z,99.90
2018-10-12T05:59:18.994Z,99.90
2018-10-12T06:04:22.607Z,99.90
2018-10-12T06:09:26.303Z,99.90
2018-10-12T06:14:29.847Z,99.90
2018-10-12T06:19:33.495Z,99.90
2018-10-12T06:24:37.609Z,99.90
2018-10-12T06:29:41.784Z,99.90
2018-10-12T06:34:45.500Z,99.90
2018-10-12T06:39:51.021Z,99.90
2018-10-12T06:44:54.754Z,99.90
2018-10-12T06:49:58.369Z,99.90
2018-10-12T06:55:01.986Z,99.90
2018-10-12T07:00:05.961Z,99.80
2018-10-12T07:05:09.554Z,99.70
2018-10-12T07:10:13.310Z,99.30
2018-10-12T07:15:16.947Z,99.10
2018-10-12T07:20:20.648Z,98.80
2018-10-12T07:25:24.332Z,98.60
2018-10-12T07:30:28.648Z,98.30
2018-10-12T07:35:33.055Z,98.20
2018-10-12T07:40:36.865Z,98.00
2018-10-12T07:45:40.646Z,97.70
2018-10-12T07:50:44.300Z,97.20
2018-10-12T07:55:48.031Z,97.00
2018-10-12T08:00:51.737Z,96.60
2018-10-12T08:05:55.394Z,96.10
2018-10-12T08:10:59.046Z,96.00
2018-10-12T08:16:03.231Z,95.70
2018-10-12T08:21:07.166Z,95.30
2018-10-12T08:26:10.947Z,94.90
2018-10-12T08:31:21.455Z,94.20
2018-10-12T08:36:25.123Z,93.80
2018-10-12T08:41:28.740Z,93.60
2018-10-12T08:46:32.559Z,93.00
2018-10-12T08:51:36.443Z,91.90
2018-10-12T08:56:40.255Z,92.50
2018-10-12T09:01:43.957Z,92.50
2018-10-12T09:06:47.586Z,91.00
2018-10-12T09:11:51.455Z,90.90
2018-10-12T09:16:55.075Z,90.30
2018-10-12T09:21:58.778Z,90.80
2018-10-12T09:27:02.388Z,90.60
2018-10-12T09:32:05.966Z,90.00
2018-10-12T09:37:09.615Z,90.10
2018-10-12T09:42:13.314Z,90.40
2018-10-12T09:47:16.954Z,87.60
2018-10-12T09:52:20.623Z,79.80
2018-10-12T09:57:31.515Z,80.40
2018-10-12T10:02:40.542Z,78.30
2018-10-12T10:07:44.357Z,74.30
2018-10-12T10:12:47.860Z,78.00
2018-10-12T10:17:51.512Z,76.90
2018-10-12T10:22:55.136Z,75.10
2018-10-12T10:27:58.749Z,70.60
2018-10-12T10:33:02.387Z,65.10
2018-10-12T10:38:06.338Z,59.60
2018-10-12T10:43:10.006Z,58.60
2018-10-12T10:48:13.627Z,56.90
2018-10-12T10:53:17.243Z,54.70
2018-10-12T10:58:20.883Z,52.30
2018-10-12T11:03:24.491Z,53.90
2018-10-12T11:08:28.107Z,55.20
2018-10-12T11:13:31.729Z,53.40
2018-10-12T11:18:35.372Z,56.20
2018-10-12T11:23:38.995Z,55.20
2018-10-12T11:28:42.653Z,52.30
2018-10-12T11:33:46.303Z,47.40
2018-10-12T11:38:50.099Z,43.60
2018-10-12T11:43:53.747Z,40.10
2018-10-12T11:48:57.371Z,40.60
2018-10-12T11:54:01.246Z,40.10
2018-10-12T11:59:04.926Z,38.90
2018-10-12T12:04:08.534Z,40.30
2018-10-12T12:09:12.148Z,43.40
2018-10-12T12:14:15.908Z,45.30
2018-10-12T12:19:19.614Z,46.00
2018-10-12T12:24:23.239Z,46.30
2018-10-12T12:29:26.875Z,47.50
2018-10-12T12:34:30.703Z,48.60
2018-10-12T12:39:34.250Z,49.50
2018-10-12T12:44:37.964Z,50.40
2018-10-12T12:49:41.572Z,50.00
2018-10-12T12:54:45.236Z,50.40
2018-10-12T12:59:48.831Z,50.50
2018-10-12T13:04:52.450Z,50.10
2018-10-12T13:09:56.078Z,49.80
2018-10-12T13:14:59.699Z,50.50
2018-10-12T13:20:03.326Z,51.40
2018-10-12T13:25:07.045Z,50.70
2018-10-12T13:30:10.662Z,50.50
2018-10-12T13:35:14.427Z,50.90
2018-10-12T13:40:18.078Z,50.00
2018-10-12T13:45:21.698Z,50.80
2018-10-12T13:50:25.323Z,49.70
2018-10-12T13:55:29.047Z,49.70
2018-10-12T14:00:32.692Z,50.30
2018-10-12T14:05:36.315Z,50.50
2018-10-12T14:10:39.958Z,49.90
2018-10-12T14:15:43.684Z,49.70
2018-10-12T14:20:47.312Z,50.40
2018-10-12T14:25:51.051Z,50.60
2018-10-12T14:30:54.684Z,50.20
2018-10-12T14:35:58.315Z,50.30
2018-10-12T14:41:02.023Z,49.90
2018-10-12T14:46:06.155Z,48.70
2018-10-12T14:51:09.906Z,49.50
2018-10-12T14:56:13.699Z,49.50
2018-10-12T15:01:17.376Z,49.30
2018-10-12T15:06:20.955Z,47.10
2018-10-12T15:11:24.638Z,43.60
2018-10-12T15:16:28.242Z,42.40
2018-10-12T15:21:31.976Z,41.30
2018-10-12T15:26:35.532Z,40.30
2018-10-12T15:31:39.167Z,39.70
2018-10-12T15:36:42.811Z,40.10
2018-10-12T15:41:46.423Z,40.00
2018-10-12T15:46:50.050Z,42.10
2018-10-12T15:51:53.665Z,45.50
2018-10-12T15:56:57.328Z,48.10
2018-10-12T16:02:00.965Z,50.10
2018-10-12T16:07:04.543Z,51.80
2018-10-12T16:12:08.164Z,53.60
2018-10-12T16:17:11.807Z,54.90
2018-10-12T16:22:15.439Z,55.80
2018-10-12T16:27:19.051Z,56.70
2018-10-12T16:32:22.706Z,58.00
2018-10-12T16:37:26.325Z,58.80
2018-10-12T16:42:29.943Z,59.40
2018-10-12T16:47:33.594Z,61.50
2018-10-12T16:52:37.226Z,60.90
2018-10-12T16:57:40.985Z,61.70
2018-10-12T17:02:44.578Z,64.40
2018-10-12T17:07:48.212Z,64.50
2018-10-12T17:12:51.927Z,65.20
2018-10-12T17:17:56.605Z,65.80
2018-10-12T17:23:00.214Z,66.80
2018-10-12T17:28:03.827Z,68.00
2018-10-12T17:33:07.475Z,68.50
2018-10-12T17:38:11.131Z,69.50
2018-10-12T17:43:14.774Z,70.50
2018-10-12T17:48:18.391Z,71.40
2018-10-12T17:53:22.027Z,72.60
2018-10-12T17:58:25.679Z,73.20
2018-10-12T18:03:29.311Z,74.50
2018-10-12T18:08:33.183Z,75.70
2018-10-12T18:13:36.802Z,76.80
2018-10-12T18:18:40.431Z,78.10
2018-10-12T18:23:44.022Z,78.70
2018-10-12T18:28:47.643Z,80.00
2018-10-12T18:33:51.267Z,81.40
2018-10-12T18:38:54.926Z,82.60
2018-10-12T18:43:58.487Z,83.70
2018-10-12T18:49:02.207Z,84.50
2018-10-12T18:54:05.907Z,85.60
2018-10-12T18:59:09.456Z,86.60
2018-10-12T19:04:13.091Z,87.70
2018-10-12T19:09:16.707Z,88.50
2018-10-12T19:14:20.318Z,89.30
2018-10-12T19:19:23.962Z,90.90
2018-10-12T19:24:27.535Z,90.50
2018-10-12T19:29:31.146Z,91.20
2018-10-12T19:34:34.763Z,91.40
2018-10-12T19:39:38.388Z,91.60
2018-10-12T19:44:42.014Z,91.90
2018-10-12T19:49:45.640Z,92.40
2018-10-12T19:54:49.248Z,92.50
2018-10-12T19:59:52.883Z,92.90
2018-10-12T20:04:56.514Z,93.40
2018-10-12T20:10:00.155Z,93.50
2018-10-12T20:15:03.794Z,94.00
2018-10-12T20:20:07.536Z,93.80
2018-10-12T20:25:11.159Z,94.50
2018-10-12T20:30:14.827Z,94.80
2018-10-12T20:35:18.487Z,94.70
2018-10-12T20:40:22.101Z,94.90
2018-10-12T20:45:25.739Z,95.20
2018-10-12T20:50:29.382Z,95.60
2018-10-12T20:55:32.983Z,95.40
2018-10-12T21:00:36.683Z,95.60
2018-10-12T21:05:40.291Z,95.70
2018-10-12T21:10:43.907Z,95.70
2018-10-12T21:15:47.518Z,96.00
2018-10-12T21:20:51.146Z,96.00
2018-10-12T21:25:54.780Z,96.30
2018-10-12T21:30:58.418Z,96.30
2018-10-12T21:36:02.055Z,96.60
2018-10-12T21:41:05.714Z,96.80
2018-10-12T21:46:09.362Z,96.90
2018-10-12T21:51:13.084Z,97.10
2018-10-12T21:56:16.708Z,97.20
2018-10-12T22:01:20.353Z,97.30
2018-10-12T22:06:28.415Z,97.50
2018-10-12T22:11:32.066Z,97.70
2018-10-12T22:16:35.682Z,98.00
2018-10-12T22:21:39.385Z,98.20
2018-10-12T22:26:43.004Z,98.20
2018-10-12T22:31:46.640Z,98.50
2018-10-12T22:36:50.280Z,98.20
2018-10-12T22:41:53.939Z,98.90
2018-10-12T22:46:57.555Z,98.80
2018-10-12T22:52:01.174Z,98.90
2018-10-12T22:57:04.803Z,99.10
2018-10-12T23:02:08.447Z,99.10
2018-10-12T23:07:12.083Z,99.10
2018-10-12T23:12:15.704Z,99.20
2018-10-12T23:17:19.318Z,99.30
2018-10-12T23:22:22.982Z,99.50
2018-10-12T23:27:26.591Z,99.50
2018-10-12T23:32:30.248Z,99.50
2018-10-12T23:37:33.990Z,99.60
2018-10-12T23:42:37.666Z,99.90
2018-10-12T23:47:41.292Z,99.90
2018-10-12T23:52:44.932Z,99.90
2018-10-12T23:57:48.564Z,99.90
